Time;durP1;ratioP1;P1;durP2;ratioP2;P2;SDS_P1;SDS_P2;PMS_P1;PMS_P2;Temp;Humidity;BMP_temperature;BMP_pressure;BME280_temperature;BME280_humidity;BME280_pressure;Samples;Min_cycle;Max_cycle;Signal;HPM_P1;HPM_P2
2022/09/01 00:02:19;;;;;;;5.28;4.78;;;16.10;99.90;;;;;;5057858;28;20037;-67
2022/09/01 00:04:46;;;;;;;6.45;5.22;;;16.10;99.90;;;;;;5058178;28;20167;-67
2022/09/01 00:07:12;;;;;;;7.50;5.68;;;16.00;99.90;;;;;;5057023;28;20037;-67
2022/09/01 00:09:39;;;;;;;6.05;5.40;;;16.00;99.90;;;;;;5057845;28;20055;-66
2022/09/01 00:12:07;;;;;;;8.93;6.18;;;16.00;99.90;;;;;;5057957;28;20048;-67
2022/09/01 00:14:36;;;;;;;9.13;6.55;;;15.90;99.90;;;;;;5057801;28;20044;-67
2022/09/01 00:17:06;;;;;;;9.48;6.53;;;15.90;99.90;;;;;;5056918;28;20387;-67
2022/09/01 00:19:32;;;;;;;11.95;7.18;;;15.80;99.90;;;;;;5057677;28;20072;-66
2022/09/01 00:21:59;;;;;;;13.18;8.20;;;15.80;99.90;;;;;;5057739;28;20040;-67
2022/09/01 00:24:26;;;;;;;10.48;7.03;;;15.90;99.90;;;;;;5057884;28;20040;-67
2022/09/01 00:26:52;;;;;;;8.15;7.35;;;15.80;99.90;;;;;;5057920;28;20044;-67
2022/09/01 00:29:18;;;;;;;6.35;5.45;;;15.80;99.90;;;;;;5057420;28;20482;-67
2022/09/01 00:31:44;;;;;;;6.40;5.65;;;15.80;99.90;;;;;;5056459;28;20048;-67
2022/09/01 00:34:10;;;;;;;5.15;4.47;;;15.80;99.80;;;;;;5058017;28;20048;-66
2022/09/01 00:36:36;;;;;;;5.25;4.03;;;15.70;99.80;;;;;;5057713;28;20029;-67
2022/09/01 00:39:03;;;;;;;7.40;3.50;;;15.70;99.80;;;;;;5039705;28;20100;-67
2022/09/01 00:41:31;;;;;;;4.88;3.58;;;15.70;99.80;;;;;;5057332;28;20449;-66
2022/09/01 00:44:04;;;;;;;5.95;3.10;;;15.60;99.90;;;;;;5057631;28;20064;-67
2022/09/01 00:46:49;;;;;;;4.43;2.47;;;15.60;99.80;;;;;;5056382;28;20414;-67
2022/09/01 00:49:25;;;;;;;3.28;1.50;;;15.60;99.70;;;;;;5057512;28;20041;-66
2022/09/01 00:51:55;;;;;;;2.70;1.70;;;15.60;99.80;;;;;;5057654;28;20037;-67
2022/09/01 00:54:24;;;;;;;3.95;1.55;;;15.60;99.80;;;;;;5055447;28;20045;-67
2022/09/01 00:56:51;;;;;;;1.83;1.35;;;15.50;99.80;;;;;;5053439;28;20044;-67
2022/09/01 00:59:21;;;;;;;1.35;1.00;;;15.50;99.60;;;;;;5054206;28;20052;-67
2022/09/01 01:01:47;;;;;;;2.10;0.88;;;15.50;99.60;;;;;;5054251;28;20495;-67
2022/09/01 01:04:13;;;;;;;3.72;1.00;;;15.50;99.40;;;;;;5052984;28;20457;-66
2022/09/01 01:06:48;;;;;;;2.63;0.80;;;15.50;99.20;;;;;;5054214;28;20442;-67
2022/09/01 01:09:16;;;;;;;2.60;1.10;;;15.50;99.00;;;;;;5052843;28;20052;-66
2022/09/01 01:11:46;;;;;;;2.33;0.93;;;15.50;99.00;;;;;;5054155;28;20037;-67
2022/09/01 01:14:14;;;;;;;2.35;1.00;;;15.50;98.90;;;;;;5054293;28;20041;-67
2022/09/01 01:16:42;;;;;;;1.42;0.82;;;15.40;98.80;;;;;;5054078;28;20045;-67
2022/09/01 01:23:00;;;;;;;1.23;0.95;;;15.50;98.90;;;;;;5053758;28;20445;-66
2022/09/01 01:24:46;;;;;;;1.40;1.30;;;15.40;98.80;;;;;;5053865;28;20048;-67
2022/09/01 01:27:12;;;;;;;2.08;0.98;;;15.40;98.80;;;;;;5052577;28;20041;-66
2022/09/01 01:29:38;;;;;;;1.60;0.95;;;15.40;98.80;;;;;;5053469;28;20044;-67
2022/09/01 01:32:12;;;;;;;2.05;1.30;;;15.40;98.70;;;;;;5052680;28;20041;-67
2022/09/01 01:34:44;;;;;;;3.20;1.55;;;15.40;98.70;;;;;;5052614;28;20466;-67
2022/09/01 01:37:13;;;;;;;4.82;1.38;;;15.40;98.70;;;;;;5052404;28;20044;-67
2022/09/01 01:39:41;;;;;;;3.05;1.10;;;15.40;98.70;;;;;;5052034;28;20045;-67
2022/09/01 01:42:08;;;;;;;12.57;2.33;;;15.40;98.70;;;;;;5052250;28;20131;-67
2022/09/01 01:44:37;;;;;;;2.47;1.80;;;15.30;98.80;;;;;;5053520;28;20483;-67
2022/09/01 01:47:07;;;;;;;1.75;1.33;;;15.30;99.10;;;;;;5052233;28;20083;-67
2022/09/01 01:49:34;;;;;;;1.23;1.00;;;15.30;98.90;;;;;;5051966;28;20091;-66
2022/09/01 01:52:00;;;;;;;1.95;1.10;;;15.30;99.00;;;;;;5053478;28;20049;-67
2022/09/01 01:54:28;;;;;;;1.80;1.23;;;15.30;99.00;;;;;;5053344;28;20622;-67
2022/09/01 01:56:56;;;;;;;4.18;1.10;;;15.30;99.00;;;;;;5052295;28;20453;-67
2022/09/01 01:59:23;;;;;;;1.83;0.85;;;15.20;99.00;;;;;;5051780;28;20076;-67
2022/09/01 02:01:49;;;;;;;2.13;1.00;;;15.30;99.00;;;;;;5053279;28;20070;-67
2022/09/01 02:04:16;;;;;;;2.50;1.00;;;15.30;99.10;;;;;;5052073;28;20406;-67
2022/09/01 02:06:45;;;;;;;1.73;0.88;;;15.30;99.00;;;;;;5053159;28;20040;-67
2022/09/01 02:09:11;;;;;;;2.88;1.00;;;15.30;99.00;;;;;;5051581;28;20064;-67
2022/09/01 02:11:37;;;;;;;1.52;1.00;;;15.30;99.00;;;;;;5035465;28;20045;-67
2022/09/01 02:14:05;;;;;;;2.35;1.05;;;15.20;99.00;;;;;;5051951;28;20064;-67
2022/09/01 02:16:32;;;;;;;2.05;1.10;;;15.20;99.10;;;;;;5051591;28;20037;-67
2022/09/01 02:18:59;;;;;;;2.30;1.10;;;15.30;99.20;;;;;;5052731;28;20454;-67
2022/09/01 02:21:26;;;;;;;2.17;1.17;;;15.30;99.20;;;;;;5052394;28;20037;-67
2022/09/01 02:24:01;;;;;;;2.15;0.93;;;15.30;99.40;;;;;;5074643;22;20068;-70
2022/09/01 02:26:37;;;;;;;3.45;1.85;;;15.30;99.50;;;;;;5052658;28;20033;-70
2022/09/01 02:29:08;;;;;;;1.42;0.80;;;15.30;99.50;;;;;;5052641;28;20120;-70
2022/09/01 02:31:38;;;;;;;1.60;0.95;;;15.30;99.50;;;;;;5052270;28;20528;-70
2022/09/01 02:34:12;;;;;;;3.17;1.00;;;15.30;99.60;;;;;;5052510;28;20463;-71
2022/09/01 02:36:48;;;;;;;1.10;0.90;;;15.30;99.60;;;;;;5052737;28;20048;-70
2022/09/01 02:39:28;;;;;;;2.25;1.10;;;15.30;99.50;;;;;;5052289;28;20044;-68
2022/09/01 02:41:55;;;;;;;2.00;1.25;;;15.30;99.60;;;;;;5052454;28;20072;-68
2022/09/01 02:44:21;;;;;;;3.05;1.48;;;15.30;99.70;;;;;;5052457;28;20068;-67
2022/09/01 02:46:49;;;;;;;1.30;1.00;;;15.30;99.60;;;;;;5052107;28;20675;-67
2022/09/01 02:49:18;;;;;;;1.35;1.10;;;15.30;99.60;;;;;;5052064;28;20040;-67
2022/09/01 02:51:57;;;;;;;1.98;1.08;;;15.30;99.60;;;;;;5052352;28;20040;-68
2022/09/01 02:54:23;;;;;;;1.75;1.17;;;15.30;99.60;;;;;;5052297;28;20056;-68
2022/09/01 02:56:53;;;;;;;1.60;1.02;;;15.30;99.60;;;;;;5052199;28;20044;-67
2022/09/01 02:59:21;;;;;;;1.83;0.90;;;15.30;99.60;;;;;;5050383;28;20037;-67
2022/09/01 03:01:52;;;;;;;2.33;1.15;;;15.20;99.60;;;;;;5052210;28;20078;-68
2022/09/01 03:04:19;;;;;;;1.17;1.00;;;15.20;99.60;;;;;;5050735;28;20098;-68
2022/09/01 03:06:45;;;;;;;2.08;0.90;;;15.30;99.70;;;;;;5051959;28;20491;-67
2022/09/01 03:09:15;;;;;;;2.47;1.10;;;15.20;99.80;;;;;;5050492;28;20049;-68
2022/09/01 03:11:44;;;;;;;1.83;1.00;;;15.30;99.90;;;;;;5050609;28;20075;-69
2022/09/01 03:14:09;;;;;;;2.25;1.20;;;15.20;99.90;;;;;;5051793;28;20048;-68
2022/09/01 03:16:36;;;;;;;3.70;1.00;;;15.30;99.90;;;;;;5050638;28;20045;-68
2022/09/01 03:19:03;;;;;;;2.28;1.00;;;15.30;99.90;;;;;;5051256;28;20040;-68
2022/09/01 03:21:30;;;;;;;2.78;1.20;;;15.20;99.90;;;;;;5051797;28;20037;-68
2022/09/01 03:24:00;;;;;;;2.85;1.30;;;15.30;99.90;;;;;;5050553;28;20048;-68
2022/09/01 03:26:26;;;;;;;2.15;1.30;;;15.20;99.90;;;;;;5051796;28;20076;-67
2022/09/01 03:28:52;;;;;;;2.92;1.52;;;15.20;99.90;;;;;;5051880;28;20244;-67
2022/09/01 03:31:18;;;;;;;2.33;1.63;;;15.20;99.90;;;;;;5051570;28;20045;-67
2022/09/01 03:33:44;;;;;;;2.13;0.90;;;15.10;99.90;;;;;;5051727;28;20133;-67
2022/09/01 03:36:17;;;;;;;1.83;1.33;;;15.10;99.90;;;;;;5051662;28;20068;-67
2022/09/01 03:38:47;;;;;;;4.82;1.30;;;15.10;99.90;;;;;;5050287;28;20049;-67
2022/09/01 03:41:16;;;;;;;2.63;1.20;;;15.10;99.90;;;;;;5051543;28;20064;-68
2022/09/01 03:43:42;;;;;;;1.77;1.10;;;15.00;99.90;;;;;;5051662;28;20064;-68
2022/09/01 03:46:08;;;;;;;1.90;1.40;;;15.00;99.90;;;;;;5051603;28;20033;-67
2022/09/01 03:48:34;;;;;;;3.15;1.60;;;15.00;99.90;;;;;;5051525;28;20047;-67
2022/09/01 03:51:03;;;;;;;2.35;1.50;;;15.00;99.90;;;;;;5049810;28;20049;-67
2022/09/01 03:53:33;;;;;;;2.40;1.30;;;15.00;99.90;;;;;;5051277;28;20041;-68
2022/09/01 03:55:58;;;;;;;1.60;1.40;;;15.00;99.90;;;;;;5051665;28;20078;-68
2022/09/01 03:58:25;;;;;;;2.33;1.15;;;14.90;99.90;;;;;;5051352;28;20086;-68
2022/09/01 04:00:57;;;;;;;3.47;2.13;;;14.90;99.90;;;;;;5051232;28;20041;-68
2022/09/01 04:03:25;;;;;;;3.15;1.55;;;14.90;99.90;;;;;;5051314;28;20044;-68
2022/09/01 04:05:52;;;;;;;3.13;1.38;;;14.80;99.90;;;;;;5049952;28;20037;-68
2022/09/01 04:08:20;;;;;;;1.98;1.20;;;14.80;99.90;;;;;;5033357;28;20056;-68
2022/09/01 04:10:53;;;;;;;1.92;1.33;;;14.80;99.90;;;;;;5050943;28;20091;-68
2022/09/01 04:13:20;;;;;;;;;;;14.80;99.90;;;;;;5051767;28;20044;-68
2022/09/01 04:15:47;;;;;;;4.68;1.52;;;14.70;99.90;;;;;;5051264;28;20306;-68
2022/09/01 04:18:20;;;;;;;2.05;1.30;;;14.70;99.90;;;;;;5050034;28;20064;-68
2022/09/01 04:20:55;;;;;;;3.33;1.55;;;14.60;99.90;;;;;;5051213;28;20402;-69
2022/09/01 04:23:28;;;;;;;2.97;1.65;;;14.60;99.90;;;;;;5051045;28;20431;-68
2022/09/01 04:26:10;;;;;;;1.95;1.50;;;14.60;99.90;;;;;;5051152;28;20067;-68
2022/09/01 04:28:44;;;;;;;4.05;1.92;;;14.60;99.90;;;;;;5051059;28;20108;-68
2022/09/01 04:31:16;;;;;;;2.05;1.67;;;14.60;99.90;;;;;;5053961;28;20041;-69
2022/09/01 04:33:45;;;;;;;2.13;1.80;;;14.60;99.90;;;;;;5054979;28;20051;-69
2022/09/01 04:36:18;;;;;;;5.00;2.20;;;14.50;99.90;;;;;;5054924;28;20037;-69
2022/09/01 04:38:57;;;;;;;2.15;1.80;;;14.50;99.90;;;;;;5053531;28;20384;-68
2022/09/01 04:41:30;;;;;;;4.50;1.77;;;14.50;99.90;;;;;;5053382;28;20127;-69
2022/09/01 04:43:57;;;;;;;3.05;1.92;;;14.50;99.90;;;;;;5053744;28;20120;-68
2022/09/01 04:46:27;;;;;;;3.25;1.77;;;14.40;99.90;;;;;;5054706;28;20044;-68
2022/09/01 04:48:54;;;;;;;2.90;2.10;;;14.40;99.90;;;;;;5054604;28;20045;-68
2022/09/01 04:51:20;;;;;;;2.03;1.75;;;14.40;99.90;;;;;;5052995;28;20045;-68
2022/09/01 04:53:49;;;;;;;2.63;1.85;;;14.40;99.90;;;;;;5054157;28;20047;-68
2022/09/01 04:56:18;;;;;;;3.95;1.80;;;14.40;99.90;;;;;;5054635;28;20407;-68
2022/09/01 04:58:45;;;;;;;6.43;2.00;;;14.40;99.90;;;;;;5054460;28;20041;-68
2022/09/01 05:01:20;;;;;;;3.05;1.80;;;14.50;99.90;;;;;;5052757;28;20045;-68
2022/09/01 05:03:55;;;;;;;2.10;1.50;;;14.50;99.90;;;;;;5054350;28;20486;-68
2022/09/01 05:06:21;;;;;;;1.65;1.38;;;14.50;99.90;;;;;;5054269;28;20045;-68
2022/09/01 05:08:47;;;;;;;2.85;1.70;;;14.50;99.90;;;;;;5054437;28;20045;-68
2022/09/01 05:11:16;;;;;;;4.40;1.75;;;14.60;99.90;;;;;;5054057;28;20045;-68
2022/09/01 05:13:44;;;;;;;2.42;1.65;;;14.60;99.90;;;;;;5054129;28;20041;-68
2022/09/01 05:16:14;;;;;;;3.35;1.55;;;14.60;99.90;;;;;;5052880;28;20045;-69
2022/09/01 05:18:46;;;;;;;2.63;1.83;;;14.60;99.90;;;;;;5053929;28;20040;-68
2022/09/01 05:21:15;;;;;;;2.97;1.90;;;14.60;99.90;;;;;;5052473;28;20082;-68
2022/09/01 05:23:41;;;;;;;3.17;1.88;;;14.70;99.90;;;;;;5052521;28;20087;-68
2022/09/01 05:26:33;;;;;;;2.90;1.88;;;14.70;99.90;;;;;;5052924;28;20053;-68
2022/09/01 05:29:02;;;;;;;3.42;2.05;;;14.70;99.90;;;;;;5050858;28;20057;-68
2022/09/01 05:31:33;;;;;;;3.40;1.83;;;14.70;99.90;;;;;;5053738;28;20040;-68
2022/09/01 05:34:00;;;;;;;3.30;2.08;;;14.70;99.90;;;;;;5053960;28;20072;-69
2022/09/01 05:36:27;;;;;;;2.85;2.10;;;14.70;99.90;;;;;;5053759;28;20128;-68
2022/09/01 05:38:53;;;;;;;3.85;2.05;;;14.60;99.90;;;;;;5053537;28;20726;-68
2022/09/01 05:41:19;;;;;;;2.78;2.03;;;14.60;99.90;;;;;;5052905;28;20087;-69
2022/09/01 05:43:48;;;;;;;2.60;2.33;;;14.60;99.90;;;;;;5053337;28;20037;-69
2022/09/01 05:46:17;;;;;;;2.75;2.17;;;14.70;99.90;;;;;;5053507;28;20513;-68
2022/09/01 05:48:44;;;;;;;4.72;2.55;;;14.70;99.90;;;;;;5053400;28;20407;-69
2022/09/01 05:51:15;;;;;;;2.88;2.03;;;14.70;99.90;;;;;;5053274;28;20135;-68
2022/09/01 05:53:41;;;;;;;3.70;2.55;;;14.70;99.90;;;;;;5052393;28;20051;-68
2022/09/01 05:56:08;;;;;;;2.15;1.80;;;14.80;99.90;;;;;;5053276;28;20040;-68
2022/09/01 05:58:34;;;;;;;3.70;2.05;;;14.80;99.90;;;;;;5053394;28;20091;-69
2022/09/01 06:01:00;;;;;;;3.80;2.00;;;14.90;99.90;;;;;;5053048;28;20514;-68
2022/09/01 06:03:27;;;;;;;4.80;2.03;;;15.20;99.90;;;;;;5053282;28;20044;-69
2022/09/01 06:05:54;;;;;;;3.03;2.17;;;15.50;99.90;;;;;;5053183;28;20051;-68
2022/09/01 06:08:24;;;;;;;3.28;1.88;;;15.90;99.90;;;;;;5053234;28;20490;-69
2022/09/01 06:10:50;;;;;;;2.67;1.77;;;16.10;99.90;;;;;;5052687;28;20041;-68
2022/09/01 06:13:20;;;;;;;3.33;1.90;;;16.40;99.90;;;;;;5053046;28;20037;-69
2022/09/01 06:15:47;;;;;;;5.18;2.22;;;16.70;99.90;;;;;;5051941;28;20045;-69
2022/09/01 06:18:14;;;;;;;4.57;2.35;;;16.70;99.90;;;;;;5051556;28;20052;-68
2022/09/01 06:20:45;;;;;;;2.75;1.80;;;16.50;99.90;;;;;;5052510;28;20652;-68
2022/09/01 06:23:13;;;;;;;4.70;2.47;;;16.40;99.90;;;;;;5051371;28;20430;-68
2022/09/01 06:25:41;;;;;;;3.20;2.05;;;16.40;99.90;;;;;;5034960;28;20116;-68
2022/09/01 06:28:07;;;;;;;2.50;1.55;;;16.20;99.90;;;;;;5052732;28;20047;-68
2022/09/01 06:30:35;;;;;;;2.75;2.03;;;16.10;99.90;;;;;;5052287;28;20507;-68
2022/09/01 06:33:04;;;;;;;5.05;1.77;;;16.10;99.90;;;;;;5052560;28;20124;-68
2022/09/01 06:35:31;;;;;;;3.35;2.28;;;16.00;99.90;;;;;;5052600;28;20044;-68
2022/09/01 06:37:57;;;;;;;8.00;2.63;;;15.90;99.90;;;;;;5052362;28;20127;-68
2022/09/01 06:40:24;;;;;;;4.25;2.63;;;15.90;99.90;;;;;;5050765;28;20098;-69
2022/09/01 06:42:51;;;;;;;4.78;2.13;;;15.90;99.90;;;;;;5052472;28;20041;-67
2022/09/01 06:45:19;;;;;;;3.72;2.10;;;16.00;99.90;;;;;;5052441;28;20045;-67
2022/09/01 06:47:46;;;;;;;2.25;1.88;;;16.10;99.90;;;;;;5052282;28;20041;-68
2022/09/01 06:50:14;;;;;;;4.45;2.67;;;16.60;99.90;;;;;;5050809;28;20048;-68
2022/09/01 06:52:42;;;;;;;2.10;1.88;;;17.00;99.90;;;;;;5051426;28;20728;-68
2022/09/01 06:55:13;;;;;;;2.50;1.83;;;17.50;99.90;;;;;;5052594;28;20171;-68
2022/09/01 06:57:40;;;;;;;5.35;1.75;;;17.80;98.90;;;;;;5052365;28;20060;-68
2022/09/01 07:00:19;;;;;;;6.38;2.03;;;18.20;98.20;;;;;;5051862;28;20052;-68
2022/09/01 07:02:53;;;;;;;2.70;1.70;;;18.40;96.90;;;;;;5052099;28;20036;-68
2022/09/01 07:05:20;;;;;;;3.15;1.95;;;18.20;96.30;;;;;;5051830;28;20394;-69
2022/09/01 07:07:50;;;;;;;3.75;1.60;;;18.20;96.10;;;;;;5051483;28;20028;-68
2022/09/01 07:10:21;;;;;;;3.42;1.58;;;18.20;96.20;;;;;;5050833;28;20037;-68
2022/09/01 07:12:48;;;;;;;2.45;1.60;;;18.10;96.00;;;;;;5050992;28;20553;-68
2022/09/01 07:15:15;;;;;;;2.53;1.50;;;18.20;96.10;;;;;;5051903;28;20044;-68
2022/09/01 07:17:47;;;;;;;3.03;1.67;;;18.00;95.90;;;;;;5050673;28;20041;-68
2022/09/01 07:20:14;;;;;;;6.00;1.65;;;17.80;96.10;;;;;;5050239;28;20466;-69
2022/09/01 07:22:40;;;;;;;2.65;1.70;;;17.80;96.50;;;;;;5049093;28;20122;-68
2022/09/01 07:25:06;;;;;;;3.05;1.60;;;17.70;96.80;;;;;;5051684;28;20065;-68
2022/09/01 07:27:32;;;;;;;2.92;1.70;;;17.50;96.80;;;;;;5051622;28;20043;-68
2022/09/01 07:29:58;;;;;;;4.30;1.73;;;17.50;97.00;;;;;;5051218;28;20123;-68
2022/09/01 07:32:23;;;;;;;4.68;1.70;;;17.50;97.30;;;;;;5051689;28;20033;-68
2022/09/01 07:34:50;;;;;;;2.65;1.65;;;17.50;97.50;;;;;;5051695;28;20037;-68
2022/09/01 07:37:17;;;;;;;6.97;2.10;;;17.60;97.50;;;;;;5051272;28;20036;-69
2022/09/01 07:39:46;;;;;;;3.90;1.77;;;17.50;97.50;;;;;;5050795;28;20048;-68
2022/09/01 07:42:11;;;;;;;1.85;1.40;;;17.80;97.50;;;;;;5050890;28;20052;-68
2022/09/01 07:44:37;;;;;;;6.30;1.95;;;18.10;96.60;;;;;;5051055;28;20418;-68
2022/09/01 07:47:08;;;;;;;4.20;1.67;;;18.40;96.20;;;;;;5051752;28;20044;-68
2022/09/01 07:49:36;;;;;;;4.60;1.45;;;18.90;95.70;;;;;;5051231;28;20511;-68
2022/09/01 07:52:04;;;;;;;2.53;1.35;;;19.40;94.60;;;;;;5051385;28;20094;-68
2022/09/01 07:54:30;;;;;;;14.23;2.55;;;19.60;93.50;;;;;;5051477;28;20041;-68
2022/09/01 07:56:56;;;;;;;4.95;1.85;;;19.90;92.60;;;;;;5051422;28;20041;-69
2022/09/01 07:59:22;;;;;;;2.63;1.48;;;20.10;92.10;;;;;;5050760;28;20518;-68
2022/09/01 08:01:48;;;;;;;3.85;1.33;;;20.40;91.60;;;;;;5051254;28;20033;-68
2022/09/01 08:04:15;;;;;;;2.80;1.00;;;20.70;90.90;;;;;;5044879;28;20044;-69
2022/09/01 08:06:41;;;;;;;5.78;1.92;;;20.80;90.10;;;;;;5055581;28;20059;-68
2022/09/01 08:09:07;;;;;;;2.20;1.55;;;20.80;88.40;;;;;;5055316;28;20507;-68
2022/09/01 08:11:33;;;;;;;3.05;1.15;;;21.00;88.10;;;;;;5054840;28;20045;-68
2022/09/01 08:13:59;;;;;;;4.10;1.30;;;21.10;87.10;;;;;;5055175;28;20040;-69
2022/09/01 08:16:29;;;;;;;2.58;1.23;;;21.20;86.50;;;;;;5037356;28;20040;-68
2022/09/01 08:18:56;;;;;;;1.65;1.20;;;21.30;84.60;;;;;;5054640;28;20037;-68
2022/09/01 08:21:23;;;;;;;1.42;0.95;;;21.40;84.60;;;;;;5054424;28;20029;-69
2022/09/01 08:23:53;;;;;;;2.90;1.33;;;21.40;83.50;;;;;;5077416;22;20484;-68
2022/09/01 08:26:22;;;;;;;2.70;1.25;;;21.50;81.60;;;;;;5054823;28;20135;-67
2022/09/01 08:28:47;;;;;;;3.72;1.40;;;21.60;81.70;;;;;;5054677;28;20037;-66
2022/09/01 08:31:16;;;;;;;3.25;1.05;;;21.50;81.20;;;;;;5054882;28;20047;-67
2022/09/01 08:33:43;;;;;;;2.60;1.30;;;21.70;80.40;;;;;;5055028;28;20071;-67
2022/09/01 08:36:11;;;;;;;2.90;1.00;;;21.60;80.60;;;;;;5054942;28;20048;-66
2022/09/01 08:38:38;;;;;;;3.17;1.13;;;21.70;79.80;;;;;;5054828;28;20087;-66
2022/09/01 08:41:13;;;;;;;2.75;1.20;;;21.80;79.50;;;;;;5054424;28;20037;-66
2022/09/01 08:43:59;;;;;;;2.60;1.20;;;21.80;78.30;;;;;;5054885;28;20407;-66
2022/09/01 08:46:33;;;;;;;3.28;1.00;;;21.90;77.70;;;;;;5054824;28;20033;-66
2022/09/01 08:49:05;;;;;;;1.42;0.90;;;21.80;77.50;;;;;;5054757;28;20048;-66
2022/09/01 08:51:59;;;;;;;1.70;1.10;;;21.70;76.60;;;;;;5054379;28;20041;-66
2022/09/01 08:54:45;;;;;;;2.25;1.33;;;21.90;76.30;;;;;;5039115;28;20048;-66
2022/09/01 08:57:29;;;;;;;3.10;1.05;;;22.10;75.20;;;;;;5054445;28;20196;-67
2022/09/01 08:59:56;;;;;;;2.45;1.45;;;22.30;75.50;;;;;;5054106;28;20033;-66
2022/09/01 09:02:42;;;;;;;3.20;0.80;;;22.20;74.90;;;;;;5054477;28;20371;-66
2022/09/01 09:05:34;;;;;;;3.75;1.08;;;22.40;74.90;;;;;;5054456;28;20041;-67
2022/09/01 09:08:24;;;;;;;4.10;1.02;;;22.60;74.20;;;;;;5054279;28;20124;-67
2022/09/01 09:10:58;;;;;;;2.35;1.13;;;22.70;74.80;;;;;;5053398;28;20608;-67
2022/09/01 09:13:36;;;;;;;2.63;1.00;;;22.60;75.20;;;;;;5053751;28;20036;-67
2022/09/01 09:16:16;;;;;;;5.15;1.42;;;22.70;73.60;;;;;;5051572;28;20056;-66
2022/09/01 09:19:17;;;;;;;1.58;1.05;;;22.30;72.30;;;;;;5053032;28;20048;-66
2022/09/01 09:21:45;;;;;;;1.33;0.70;;;22.20;72.10;;;;;;5054237;28;20041;-68
2022/09/01 09:24:28;;;;;;;2.95;1.05;;;22.30;73.10;;;;;;5053712;28;20157;-66
2022/09/01 09:27:01;;;;;;;3.08;0.70;;;22.30;71.50;;;;;;5053951;28;20402;-66
2022/09/01 09:29:26;;;;;;;1.65;0.65;;;22.40;70.80;;;;;;5053801;28;20064;-67
2022/09/01 09:32:07;;;;;;;2.95;0.70;;;22.30;70.60;;;;;;5054081;28;20494;-66
2022/09/01 09:34:37;;;;;;;3.15;1.30;;;22.30;70.00;;;;;;5053816;28;20044;-67
2022/09/01 09:37:35;;;;;;;2.15;1.00;;;22.30;70.90;;;;;;5053766;28;20044;-67
2022/09/01 09:40:17;;;;;;;1.67;0.65;;;22.10;68.80;;;;;;5041055;28;20056;-67
2022/09/01 09:42:55;;;;;;;1.15;0.77;;;22.10;69.70;;;;;;5053660;28;20379;-67
2022/09/01 09:45:38;;;;;;;3.60;1.23;;;22.10;69.60;;;;;;5053561;28;20561;-67
2022/09/01 09:48:07;;;;;;;1.10;0.88;;;22.00;69.40;;;;;;5053411;28;20123;-66
2022/09/01 09:50:38;;;;;;;3.97;0.70;;;22.10;68.60;;;;;;5053438;28;20041;-67
2022/09/01 09:53:28;;;;;;;3.90;0.88;;;22.00;68.50;;;;;;5053659;28;20483;-67
2022/09/01 09:56:14;;;;;;;3.47;0.80;;;22.00;68.40;;;;;;5053149;28;20037;-67
2022/09/01 09:58:42;;;;;;;2.42;0.82;;;22.00;67.80;;;;;;5053149;28;20048;-67
2022/09/01 10:01:21;;;;;;;1.67;0.60;;;22.00;67.40;;;;;;5052863;28;20037;-67
2022/09/01 10:03:52;;;;;;;1.23;0.50;;;22.00;66.50;;;;;;5053118;28;20083;-67
2022/09/01 10:06:44;;;;;;;1.55;0.70;;;22.00;66.50;;;;;;5053147;28;20075;-67
2022/09/01 10:09:36;;;;;;;2.95;0.60;;;21.90;66.00;;;;;;5053264;28;20056;-67
2022/09/01 10:12:04;;;;;;;2.03;0.82;;;21.90;66.00;;;;;;5053166;28;20041;-67
2022/09/01 10:14:47;;;;;;;1.85;0.63;;;22.00;65.60;;;;;;5053020;28;20041;-67
2022/09/01 10:17:18;;;;;;;1.10;0.70;;;22.10;65.30;;;;;;5052995;28;20103;-67
2022/09/01 10:19:54;;;;;;;4.78;0.80;;;22.10;65.80;;;;;;5052758;28;20071;-67
2022/09/01 10:22:21;;;;;;;2.60;0.68;;;22.10;65.00;;;;;;5052866;28;20087;-67
2022/09/01 10:24:47;;;;;;;0.88;0.60;;;21.90;64.50;;;;;;5052775;28;20483;-67
2022/09/01 10:27:31;;;;;;;1.00;0.68;;;21.90;65.10;;;;;;5052644;28;20086;-66
2022/09/01 10:30:04;;;;;;;1.83;1.20;;;21.80;64.50;;;;;;5052602;28;20115;-67
2022/09/01 10:32:37;;;;;;;3.03;0.73;;;21.70;64.10;;;;;;5052770;28;20059;-67
2022/09/01 10:35:04;;;;;;;7.43;0.95;;;21.70;65.10;;;;;;5052988;28;20037;-67
2022/09/01 10:37:31;;;;;;;2.00;0.50;;;21.90;64.00;;;;;;5052588;28;20051;-66
2022/09/01 10:40:27;;;;;;;4.70;0.70;;;22.00;61.70;;;;;;5052023;28;20076;-66
2022/09/01 10:42:55;;;;;;;2.45;0.52;;;22.00;61.40;;;;;;5052760;28;20098;-66
2022/09/01 10:45:37;;;;;;;2.42;0.65;;;22.20;60.80;;;;;;5052799;28;20549;-66
2022/09/01 10:48:37;;;;;;;1.00;0.50;;;22.20;57.40;;;;;;5052632;28;20107;-66
2022/09/01 10:51:11;;;;;;;1.58;0.57;;;22.20;58.00;;;;;;5040162;28;20106;-66
2022/09/01 10:53:42;;;;;;;1.23;0.50;;;22.20;57.90;;;;;;5052011;28;20041;-67
2022/09/01 10:56:14;;;;;;;2.72;0.70;;;22.30;57.40;;;;;;5049547;28;20071;-66
2022/09/01 10:58:57;;;;;;;3.53;0.60;;;22.20;56.00;;;;;;5051569;28;20040;-67
2022/09/01 11:01:49;;;;;;;2.65;0.70;;;22.30;54.60;;;;;;5051497;28;20457;-66
2022/09/01 11:04:20;;;;;;;1.67;0.60;;;22.20;55.10;;;;;;5048733;28;20040;-66
2022/09/01 11:07:00;;;;;;;4.07;0.45;;;22.00;55.20;;;;;;5051340;28;20033;-66
2022/09/01 11:09:38;;;;;;;3.05;0.70;;;21.80;55.60;;;;;;5050834;28;20048;-66
2022/09/01 11:12:16;;;;;;;2.35;0.50;;;21.80;56.30;;;;;;5050636;28;20043;-66
2022/09/01 11:14:55;;;;;;;2.17;0.55;;;21.90;57.10;;;;;;5049067;28;20045;-67
2022/09/01 11:17:23;;;;;;;1.45;0.68;;;22.00;56.90;;;;;;5050094;28;20029;-66
2022/09/01 11:20:21;;;;;;;2.55;0.57;;;22.00;56.90;;;;;;5050173;28;20049;-67
2022/09/01 11:23:00;;;;;;;2.47;0.65;;;22.20;56.40;;;;;;5051618;28;20411;-69
2022/09/01 11:25:34;;;;;;;2.88;0.80;;;22.20;53.70;;;;;;5051964;28;20037;-68
2022/09/01 11:28:05;;;;;;;3.50;0.60;;;22.20;55.10;;;;;;5051748;28;20060;-66
2022/09/01 11:30:54;;;;;;;2.22;0.60;;;22.20;55.20;;;;;;5051619;28;20045;-67
2022/09/01 11:33:34;;;;;;;0.95;0.55;;;22.30;55.00;;;;;;5051891;28;20053;-66
2022/09/01 11:36:06;;;;;;;1.50;1.05;;;22.20;54.70;;;;;;5051320;28;20473;-66
2022/09/01 11:38:54;;;;;;;2.35;0.50;;;22.30;54.90;;;;;;5050977;28;20623;-66
2022/09/01 11:41:54;;;;;;;1.17;0.65;;;22.40;53.40;;;;;;5048251;28;20041;-66
2022/09/01 11:44:33;;;;;;;4.63;0.77;;;22.40;52.90;;;;;;5042069;28;20080;-66
2022/09/01 11:47:06;;;;;;;2.25;0.60;;;22.50;53.80;;;;;;5050821;28;20049;-66
2022/09/01 11:49:39;;;;;;;2.22;0.43;;;22.50;53.40;;;;;;5050906;28;20041;-66
2022/09/01 11:52:05;;;;;;;2.42;0.60;;;22.50;52.80;;;;;;5048897;28;20041;-66
2022/09/01 11:54:40;;;;;;;2.00;0.57;;;22.60;53.30;;;;;;5051044;28;20052;-66
2022/09/01 11:57:24;;;;;;;1.83;0.68;;;22.70;52.60;;;;;;5048525;28;20036;-66
2022/09/01 11:59:50;;;;;;;3.58;0.55;;;22.60;51.50;;;;;;5050710;28;20068;-66
2022/09/01 12:02:29;;;;;;;2.40;0.75;;;22.70;52.60;;;;;;5050884;28;20037;-66
2022/09/01 12:04:56;;;;;;;2.55;0.77;;;22.60;53.00;;;;;;5041070;28;20033;-66
2022/09/01 12:07:41;;;;;;;2.45;0.77;;;22.60;53.10;;;;;;5050916;28;20037;-66
2022/09/01 12:10:34;;;;;;;12.05;0.82;;;22.60;52.40;;;;;;5050156;28;20098;-66
2022/09/01 12:13:10;;;;;;;0.68;0.47;;;22.60;52.50;;;;;;5049301;28;20110;-66
2022/09/01 12:15:41;;;;;;;1.55;0.43;;;22.70;52.10;;;;;;5048444;28;20065;-66
2022/09/01 12:18:11;;;;;;;1.77;0.50;;;22.60;52.40;;;;;;5050597;28;20104;-66
2022/09/01 12:20:37;;;;;;;2.67;0.70;;;22.70;52.70;;;;;;5050893;28;20045;-66
2022/09/01 12:23:25;;;;;;;2.33;0.60;;;22.70;52.80;;;;;;5049826;28;20037;-66
2022/09/01 12:25:56;;;;;;;1.88;0.88;;;22.70;52.50;;;;;;5050611;28;20052;-67
2022/09/01 12:28:29;;;;;;;2.20;0.57;;;22.70;52.70;;;;;;5050621;28;20072;-67
2022/09/01 12:30:57;;;;;;;2.22;0.77;;;22.60;53.00;;;;;;5030934;28;20045;-66
2022/09/01 12:33:24;;;;;;;1.58;0.55;;;22.70;52.90;;;;;;5031261;28;20045;-67
2022/09/01 12:35:50;;;;;;;0.93;0.50;;;22.70;52.70;;;;;;5031304;28;20045;-69
2022/09/01 12:38:18;;;;;;;2.22;0.50;;;22.80;52.20;;;;;;5031355;28;20143;-69
2022/09/01 12:40:49;;;;;;;2.25;0.80;;;22.80;52.00;;;;;;5030846;28;20064;-69
2022/09/01 12:43:48;;;;;;;1.48;0.60;;;22.90;51.60;;;;;;5031340;28;20044;-69
2022/09/01 12:46:41;;;;;;;1.15;0.50;;;23.00;51.20;;;;;;5008664;28;20049;-69
2022/09/01 12:49:18;;;;;;;3.05;0.70;;;23.00;51.30;;;;;;5031091;28;20044;-69
2022/09/01 12:51:46;;;;;;;1.60;0.65;;;22.90;50.70;;;;;;5033492;28;20044;-69
2022/09/01 12:54:12;;;;;;;2.08;0.75;;;23.10;51.20;;;;;;5034813;28;20119;-69
2022/09/01 12:56:38;;;;;;;2.35;0.90;;;23.10;51.20;;;;;;5034572;28;20084;-69
2022/09/01 12:59:14;;;;;;;0.93;0.50;;;23.10;50.70;;;;;;5034498;28;20095;-69
2022/09/01 13:01:40;;;;;;;1.52;0.63;;;23.00;50.50;;;;;;5034564;28;20109;-69
2022/09/01 13:04:29;;;;;;;2.03;0.55;;;23.00;50.80;;;;;;5037717;28;20500;-69
2022/09/01 13:07:04;;;;;;;2.95;0.47;;;23.20;51.20;;;;;;5052317;28;20130;-69
2022/09/01 13:09:30;;;;;;;2.70;0.57;;;23.20;51.90;;;;;;5054088;28;20108;-69
2022/09/01 13:12:10;;;;;;;1.40;0.52;;;23.30;51.50;;;;;;5054353;28;20183;-69
2022/09/01 13:14:36;;;;;;;3.58;0.60;;;23.20;50.90;;;;;;5054153;28;20048;-69